Historyczne dane pomiarowe

Dodano dane terminowe – wersja testowa.

Dane z okresu 1951-2019

Wersja bazy: 1.34 [2019-03-16, lista zmian], aktualizacja planowana na 2019-04-15

Dane meteo z obszaru Polski uzyskane na podstawie danych udostępnionych przez Instytut Meteorologii i Gospodarki Wodnej – Państwowy Instytut Badawczy.

 

Wybierz Datę:    

       

TemperaturaWilgotnośćWiatrCiśnienieOpadyŚniegCzas trwania zjawisk
 Stacja t tx tn tng RH VA  wxwx mslp ppp RRR   cm mm wxwxwxwxwxwxwx
2016-08-13 19.7 26.5 13.8 12.5-- 6.7----- 0.0------------
2016-08-14 18.7 24.0 14.8 12.5-- 7.0----- 0.0------------
2016-08-15 16.5 22.0 9.8 6.9-- 5.3----- 0.0------------
2016-08-16 15.2 20.8 9.3 7.9-- 4.7----- 0.0------------
2016-08-17 15.1 21.5 8.3 5.4-- 3.0----- 0.0------------
2016-08-18 14.8 23.0 8.8 5.9-- 6.7----- 0.0------------
2016-08-19 18.5 27.5 9.3 6.9-- 1.0----- 0.0------------
2016-08-20 19.8 29.0 11.8 9.0-- 4.0----- 0.0------------
2016-08-21 19.4 25.4 15.8 14.0-- 8.0----- 9.3------------
2016-08-22 16.9 22.2 12.6 11.0-- 5.7----- 0.0------------
2016-08-23 17.6 24.0 10.8 8.8-- 6.0----- 0.0------------
2016-08-24 18.4 24.5 11.8 10.6-- 5.7----- 0.0------------
2016-08-25 19.5 27.0 11.6 8.9-- 0.0----- 0.0------------
2016-08-26 21.3 29.0 14.1 10.9-- 0.0----- 0.0------------
2016-08-27 21.4 30.8 13.2 9.9-- 0.0----- 0.0------------
2016-08-28 21.0 30.5 13.5 10.8-- 1.7----- 0.0------------
2016-08-29 21.6 25.9 16.9 13.4-- 5.3----- 0.0------------
2016-08-30 17.8 22.4 13.4 10.5-- 2.7----- 0.0------------
2016-08-31 16.3 24.8 7.1 5.1-- 0.0----- 0.0------------
2016-09-01 19.3 27.8 11.3 6.9-- 2.7----- 0.0------------
2016-09-02 18.0 24.6 10.0 7.9-- 4.7----- 0.0------------
2016-09-03 19.2 27.5 10.5 8.5-- 6.7----- 0.0------------
2016-09-04 18.9 27.5 13.1 9.7-- 5.7----- 3.5------------
2016-09-05 16.9 21.4 14.3 13.0-- 6.3----- 0.1------------
2016-09-06 16.3 22.5 11.3 9.8-- 4.7----- 0.0------------
2016-09-07 18.5 26.6 10.0 7.7-- 1.3----- 0.0------------
2016-09-08 20.7 29.5 13.2 10.0-- 1.7----- 0.0------------
2016-09-09 21.1 30.5 13.3 10.2-- 1.3----- 0.0------------
2016-09-10 19.9 27.5 12.8 10.7-- 1.0----- 0.0------------
2016-09-11 21.8 31.4 14.5 11.0-- 5.3----- 0.0------------
80.4 ms

 

Źródłem pochodzenia danych jest Instytut Meteorologii i Gospodarki Wodnej – Państwowy Instytut Badawczy. Dane Instytutu Meteorologii i Gospodarki Wodnej – Państwowego Instytutu Badawczego zostały przetworzone.

Dane źródłowe można odnaleźć na stronie https://dane.imgw.pl